Flight Track Log - Related Links

Times and Time Zones

All times are in EDT time to prevent confusion due to time zone crossing. See the SWA1834 flight status page for this flight to view local times or setup timezone preferences in your user account.

Time Position Orientation Groundspeed Altitude Reporting Facility
EDT Latitude Longitude Course Direction KTS MPH feet Rate Location/Type
Sun 04:56:30 PM 33.6333 -117.9000 203° Southwest 152 175 2,400  Level Southern California TRACON
Sun 04:57:30 PM 33.5833 -117.9000 180° South 180 207 3,700 2,321 Climbing Southern California TRACON
Sun 04:58:47 PM 33.5003 -117.9514 207° Southwest 258 297 7,700 3,000 Climbing Los Angeles Center
Sun 05:00:02 PM 33.4408 -118.0386 231° Southwest 302 348 11,300 3,022 Climbing Los Angeles Center
Sun 05:01:04 PM 33.4214 -118.1503 258° West 336 387 14,600 3,072 Climbing Los Angeles Center
Sun 05:02:07 PM 33.4008 -118.2667 258° West 350 403 17,700 2,592 Climbing Los Angeles Center
Sun 05:03:09 PM 33.3836 -118.3892 260° West 364 419 20,000 1,694 Climbing Los Angeles Center
Sun 05:04:11 PM 33.4450 -118.4981 304° West 387 445 21,200 1,935 Climbing Los Angeles Center
Sun 05:06:15 PM 33.6372 -118.7078 318° Northwest 432 497 26,000 1,970 Climbing Los Angeles Center
Sun 05:07:29 PM 33.7336 -118.7994 322° Northwest 438 504 27,700 1,007 Climbing Los Angeles Center
Sun 05:08:32 PM 33.8483 -118.9081 322° Northwest 435 501 28,300 1,065 Climbing Los Angeles Center
Sun 05:09:33 PM 33.9267 -118.9836 321° Northwest 445 512 29,900 1,694 Climbing Los Angeles Center
Sun 05:10:36 PM 34.0483 -119.1000 322° Northwest 461 531 31,800 1,200 Climbing Los Angeles Center
Sun 05:11:38 PM 34.1511 -119.1986 322° Northwest 470 541 32,400 1,065 Climbing Los Angeles Center
Sun 05:12:40 PM 34.2744 -119.3181 321° Northwest 473 544 34,000 1,306 Climbing Los Angeles Center
Sun 05:13:42 PM 34.3772 -119.4178 321° Northwest 474 545 35,100 1,403 Climbing Los Angeles Center
Sun 05:14:44 PM 34.4756 -119.5136 321° Northwest 457 526 36,900 1,452 Climbing Los Angeles Center
Sun 05:15:46 PM 34.5747 -119.6106 321° Northwest 457 526 38,100 1,065 Climbing Los Angeles Center
Sun 05:16:48 PM 34.6736 -119.7031 322° Northwest 462 532 39,100 919 Climbing Los Angeles Center
Sun 05:17:50 PM 34.7947 -119.8217 321° Northwest 467 537 40,000 394 Climbing Los Angeles Center
Sun 05:19:05 PM 34.9161 -119.9414 321° Northwest 468 539 40,000  Level Los Angeles Center
Sun 05:20:07 PM 35.0175 -120.0403 321° Northwest 468 539 40,000  Level Los Angeles Center
Sun 05:21:09 PM 35.1261 -120.1489 321° Northwest 466 536 40,000  Level Los Angeles Center
Sun 05:22:11 PM 35.2264 -120.2475 321° Northwest 466 536 40,000  Level Los Angeles Center
Sun 05:23:13 PM 35.3272 -120.3464 321° Northwest 468 539 40,000  Level Los Angeles Center
Sun 05:24:15 PM 35.4261 -120.4469 320° Northwest 465 535 40,000  Level Los Angeles Center
Sun 05:25:17 PM 35.5250 -120.5481 320° Northwest 464 534 40,000  Level Los Angeles Center
Sun 05:26:19 PM 35.6442 -120.6678 321° Northwest 462 532 40,000 -117 Level Los Angeles Center
Sun 05:27:00 PM 35.7061 -120.7314 320° Northwest 462 532 39,800 -1,107 Descending Oakland Center
Sun 05:28:02 PM 35.8053 -120.8314 321° Northwest 462 532 38,100 -2,049 Descending Oakland Center
Sun 05:29:03 PM 35.9036 -120.9311 321° Northwest 459 528 35,600 -2,732 Descending Oakland Center
Sun 05:30:05 PM 36.0050 -121.0297 322° Northwest 470 541 32,500 -3,194 Descending Oakland Center
Sun 05:31:07 PM 36.1136 -121.1225 325° Northwest 475 547 29,000 -3,339 Descending Oakland Center
Sun 05:32:09 PM 36.2414 -121.2333 325° Northwest 468 539 25,600 -3,024 Descending Oakland Center
Sun 05:33:10 PM 36.3439 -121.3225 325° Northwest 453 521 22,800 -2,829 Descending Oakland Center
Sun 05:34:12 PM 36.4444 -121.4092 325° Northwest 445 512 19,800 -2,903 Descending Oakland Center
Sun 05:35:14 PM 36.5489 -121.4850 330° Northwest 437 503 16,800 -2,806 Descending Oakland Center
Sun 05:36:16 PM 36.6669 -121.5019 353° North 426 490 14,000 -2,683 Descending Oakland Center
Sun 05:37:17 PM 36.7783 -121.5231 351° North 407 468 11,300 -1,854 Descending Oakland Center
Sun 05:38:19 PM 36.8975 -121.5417 353° North 377 434 10,200 -968 Descending Oakland Center
Sun 05:39:21 PM 36.9800 -121.5597 350° North 320 368 9,300 -1,355 Descending Oakland Center
Sun 05:40:23 PM 37.0497 -121.6181 326° Northwest 305 351 7,400 -1,610 Descending Oakland Center
Sun 05:41:24 PM 37.1161 -121.6728 327° Northwest 295 339 6,000 -1,409 Descending Oakland Center
Sun 05:42:35 PM 37.1833 -121.7333 324° Northwest 246 283 4,300 -1,328 Descending Northern Cal TRACON
Sun 05:43:35 PM 37.2333 -121.8000 313° West 224 258 3,100 -1,043 Descending Northern Cal TRACON
Sun 05:44:30 PM 37.2697 -121.8292 327° Northwest 232 267 2,300 -1,026 Descending Oakland Center
Sun 05:45:32 PM 37.3167 -121.8819 318° Northwest 205 236 1,100 -927 Descending Oakland Center
Sun 05:46:33 PM 37.3444 -121.9114 320° Northwest 160 184 400 -689 Descending Oakland Center
Sun 05:48:00 PM 37.3500 -121.9167 North  Level FlightAware Approximate
Sun 05:55:00 PM 37.3627 -121.9291 North  Level Estimated

Login

Don't have an account? Register now (free) for customized features, flight alerts, and more!